sensor_id;sensor_type;location;lat;lon;timestamp;pressure;altitude;pressure_sealevel;temperature
65569;BMP180;52211;50.154;8.682;2022-07-06T00:01:32;100724.00;;;24.80
65569;BMP180;52211;50.154;8.682;2022-07-06T00:04:02;100726.00;;;24.80
65569;BMP180;52211;50.154;8.682;2022-07-06T00:06:35;100731.00;;;24.80
65569;BMP180;52211;50.154;8.682;2022-07-06T00:09:05;100730.00;;;24.80
65569;BMP180;52211;50.154;8.682;2022-07-06T00:11:43;100726.00;;;24.70
65569;BMP180;52211;50.154;8.682;2022-07-06T00:14:14;100729.00;;;24.70
65569;BMP180;52211;50.154;8.682;2022-07-06T00:16:46;100734.00;;;24.70
65569;BMP180;52211;50.154;8.682;2022-07-06T00:19:13;100738.00;;;24.70
65569;BMP180;52211;50.154;8.682;2022-07-06T00:21:43;100733.00;;;24.60
65569;BMP180;52211;50.154;8.682;2022-07-06T00:24:14;100729.00;;;24.60
65569;BMP180;52211;50.154;8.682;2022-07-06T00:26:44;100735.00;;;24.60
65569;BMP180;52211;50.154;8.682;2022-07-06T00:29:13;100729.00;;;24.60
65569;BMP180;52211;50.154;8.682;2022-07-06T00:31:40;100730.00;;;24.60
65569;BMP180;52211;50.154;8.682;2022-07-06T00:34:16;100733.00;;;24.60
65569;BMP180;52211;50.154;8.682;2022-07-06T00:36:45;100729.00;;;24.60
65569;BMP180;52211;50.154;8.682;2022-07-06T00:39:12;100727.00;;;24.50
65569;BMP180;52211;50.154;8.682;2022-07-06T00:41:39;100722.00;;;24.50
65569;BMP180;52211;50.154;8.682;2022-07-06T00:44:10;100726.00;;;24.50
65569;BMP180;52211;50.154;8.682;2022-07-06T00:46:39;100723.00;;;24.50
65569;BMP180;52211;50.154;8.682;2022-07-06T00:49:08;100725.00;;;24.40
65569;BMP180;52211;50.154;8.682;2022-07-06T00:51:56;100721.00;;;24.40
65569;BMP180;52211;50.154;8.682;2022-07-06T00:54:33;100731.00;;;24.40
65569;BMP180;52211;50.154;8.682;2022-07-06T00:57:03;100729.00;;;24.30
65569;BMP180;52211;50.154;8.682;2022-07-06T00:59:31;100720.00;;;24.30
65569;BMP180;52211;50.154;8.682;2022-07-06T01:01:58;100719.00;;;24.30
65569;BMP180;52211;50.154;8.682;2022-07-06T01:04:27;100731.00;;;24.30
65569;BMP180;52211;50.154;8.682;2022-07-06T01:07:01;100732.00;;;24.30
65569;BMP180;52211;50.154;8.682;2022-07-06T01:09:31;100730.00;;;24.30
65569;BMP180;52211;50.154;8.682;2022-07-06T01:11:58;100727.00;;;24.30
65569;BMP180;52211;50.154;8.682;2022-07-06T01:14:25;100728.00;;;24.20
65569;BMP180;52211;50.154;8.682;2022-07-06T01:16:57;100724.00;;;24.20
65569;BMP180;52211;50.154;8.682;2022-07-06T01:19:27;100723.00;;;24.20
65569;BMP180;52211;50.154;8.682;2022-07-06T01:21:54;100728.00;;;24.20
65569;BMP180;52211;50.154;8.682;2022-07-06T01:24:21;100719.00;;;24.10
65569;BMP180;52211;50.154;8.682;2022-07-06T01:26:50;100720.00;;;24.10
65569;BMP180;52211;50.154;8.682;2022-07-06T01:29:20;100724.00;;;24.10
65569;BMP180;52211;50.154;8.682;2022-07-06T01:31:49;100728.00;;;24.00
65569;BMP180;52211;50.154;8.682;2022-07-06T01:34:20;100722.00;;;24.00
65569;BMP180;52211;50.154;8.682;2022-07-06T01:36:51;100718.00;;;24.00
65569;BMP180;52211;50.154;8.682;2022-07-06T01:39:23;100727.00;;;23.90
65569;BMP180;52211;50.154;8.682;2022-07-06T01:41:50;100726.00;;;23.90
65569;BMP180;52211;50.154;8.682;2022-07-06T01:44:22;100726.00;;;23.90
65569;BMP180;52211;50.154;8.682;2022-07-06T01:46:54;100720.00;;;23.90
65569;BMP180;52211;50.154;8.682;2022-07-06T01:49:25;100730.00;;;23.80
65569;BMP180;52211;50.154;8.682;2022-07-06T01:51:56;100728.00;;;23.80
65569;BMP180;52211;50.154;8.682;2022-07-06T01:54:26;100724.00;;;23.80
65569;BMP180;52211;50.154;8.682;2022-07-06T01:56:52;100725.00;;;23.70
65569;BMP180;52211;50.154;8.682;2022-07-06T01:59:21;100722.00;;;23.70
65569;BMP180;52211;50.154;8.682;2022-07-06T02:01:56;100718.00;;;23.70
65569;BMP180;52211;50.154;8.682;2022-07-06T02:04:27;100721.00;;;23.60
65569;BMP180;52211;50.154;8.682;2022-07-06T02:06:57;100721.00;;;23.60
65569;BMP180;52211;50.154;8.682;2022-07-06T02:09:24;100726.00;;;23.60
65569;BMP180;52211;50.154;8.682;2022-07-06T02:11:51;100723.00;;;23.60
65569;BMP180;52211;50.154;8.682;2022-07-06T02:14:18;100725.00;;;23.50
65569;BMP180;52211;50.154;8.682;2022-07-06T02:16:45;100722.00;;;23.40
65569;BMP180;52211;50.154;8.682;2022-07-06T02:19:14;100717.00;;;23.40
65569;BMP180;52211;50.154;8.682;2022-07-06T02:21:46;100727.00;;;23.40
65569;BMP180;52211;50.154;8.682;2022-07-06T02:24:15;100730.00;;;23.30
65569;BMP180;52211;50.154;8.682;2022-07-06T02:26:45;100738.00;;;23.30
65569;BMP180;52211;50.154;8.682;2022-07-06T02:29:14;100728.00;;;23.30
65569;BMP180;52211;50.154;8.682;2022-07-06T02:31:45;100722.00;;;23.30
65569;BMP180;52211;50.154;8.682;2022-07-06T02:34:20;100723.00;;;23.20
65569;BMP180;52211;50.154;8.682;2022-07-06T02:36:49;100720.00;;;23.20
65569;BMP180;52211;50.154;8.682;2022-07-06T02:39:18;100719.00;;;23.20
65569;BMP180;52211;50.154;8.682;2022-07-06T02:41:47;100728.00;;;23.20
65569;BMP180;52211;50.154;8.682;2022-07-06T02:44:19;100723.00;;;23.10
65569;BMP180;52211;50.154;8.682;2022-07-06T02:46:45;100729.00;;;23.10
65569;BMP180;52211;50.154;8.682;2022-07-06T02:49:14;100732.00;;;23.10
65569;BMP180;52211;50.154;8.682;2022-07-06T02:51:46;100730.00;;;23.00
65569;BMP180;52211;50.154;8.682;2022-07-06T02:54:20;100734.00;;;23.00
65569;BMP180;52211;50.154;8.682;2022-07-06T02:56:49;100738.00;;;22.90
65569;BMP180;52211;50.154;8.682;2022-07-06T02:59:21;100730.00;;;22.90
65569;BMP180;52211;50.154;8.682;2022-07-06T03:01:55;100741.00;;;22.90
65569;BMP180;52211;50.154;8.682;2022-07-06T03:04:22;100737.00;;;22.90
65569;BMP180;52211;50.154;8.682;2022-07-06T03:06:52;100739.00;;;22.80
65569;BMP180;52211;50.154;8.682;2022-07-06T03:09:21;100733.00;;;22.80
65569;BMP180;52211;50.154;8.682;2022-07-06T03:11:55;100738.00;;;22.80
65569;BMP180;52211;50.154;8.682;2022-07-06T03:14:24;100736.00;;;22.70
65569;BMP180;52211;50.154;8.682;2022-07-06T03:16:54;100739.00;;;22.70
65569;BMP180;52211;50.154;8.682;2022-07-06T03:19:21;100739.00;;;22.70
65569;BMP180;52211;50.154;8.682;2022-07-06T03:21:50;100743.00;;;22.60
65569;BMP180;52211;50.154;8.682;2022-07-06T03:24:22;100740.00;;;22.60
65569;BMP180;52211;50.154;8.682;2022-07-06T03:26:54;100738.00;;;22.50
65569;BMP180;52211;50.154;8.682;2022-07-06T03:29:25;100747.00;;;22.50
65569;BMP180;52211;50.154;8.682;2022-07-06T03:31:54;100750.00;;;22.50
65569;BMP180;52211;50.154;8.682;2022-07-06T03:34:26;100749.00;;;22.40
65569;BMP180;52211;50.154;8.682;2022-07-06T03:36:55;100752.00;;;22.40
65569;BMP180;52211;50.154;8.682;2022-07-06T03:39:26;100751.00;;;22.40
65569;BMP180;52211;50.154;8.682;2022-07-06T03:41:58;100755.00;;;22.40
65569;BMP180;52211;50.154;8.682;2022-07-06T03:44:26;100757.00;;;22.30
65569;BMP180;52211;50.154;8.682;2022-07-06T03:46:57;100765.00;;;22.30
65569;BMP180;52211;50.154;8.682;2022-07-06T03:49:30;100758.00;;;22.30
65569;BMP180;52211;50.154;8.682;2022-07-06T03:52:02;100759.00;;;22.30
65569;BMP180;52211;50.154;8.682;2022-07-06T03:54:29;100768.00;;;22.30
65569;BMP180;52211;50.154;8.682;2022-07-06T03:56:58;100765.00;;;22.20
65569;BMP180;52211;50.154;8.682;2022-07-06T03:59:27;100766.00;;;22.20
65569;BMP180;52211;50.154;8.682;2022-07-06T04:02:00;100767.00;;;22.20
65569;BMP180;52211;50.154;8.682;2022-07-06T04:04:29;100771.00;;;22.20
65569;BMP180;52211;50.154;8.682;2022-07-06T04:06:56;100771.00;;;22.20
65569;BMP180;52211;50.154;8.682;2022-07-06T04:09:26;100775.00;;;22.20
65569;BMP180;52211;50.154;8.682;2022-07-06T04:11:55;100782.00;;;22.20
65569;BMP180;52211;50.154;8.682;2022-07-06T04:14:25;100787.00;;;22.10
65569;BMP180;52211;50.154;8.682;2022-07-06T04:16:53;100780.00;;;22.10
65569;BMP180;52211;50.154;8.682;2022-07-06T04:19:23;100784.00;;;22.10
65569;BMP180;52211;50.154;8.682;2022-07-06T04:21:54;100785.00;;;22.10
65569;BMP180;52211;50.154;8.682;2022-07-06T04:24:23;100783.00;;;22.10
65569;BMP180;52211;50.154;8.682;2022-07-06T04:26:53;100790.00;;;22.10
65569;BMP180;52211;50.154;8.682;2022-07-06T04:29:20;100789.00;;;22.10
65569;BMP180;52211;50.154;8.682;2022-07-06T04:31:47;100798.00;;;22.10
65569;BMP180;52211;50.154;8.682;2022-07-06T04:34:16;100798.00;;;22.10
65569;BMP180;52211;50.154;8.682;2022-07-06T04:36:47;100789.00;;;22.00
65569;BMP180;52211;50.154;8.682;2022-07-06T04:39:21;100795.00;;;22.00
65569;BMP180;52211;50.154;8.682;2022-07-06T04:41:55;100787.00;;;22.00
65569;BMP180;52211;50.154;8.682;2022-07-06T04:44:26;100791.00;;;22.00
65569;BMP180;52211;50.154;8.682;2022-07-06T04:46:53;100794.00;;;22.00
65569;BMP180;52211;50.154;8.682;2022-07-06T04:49:23;100797.00;;;22.00
65569;BMP180;52211;50.154;8.682;2022-07-06T04:51:50;100802.00;;;22.00
65569;BMP180;52211;50.154;8.682;2022-07-06T04:54:19;100804.00;;;22.00
65569;BMP180;52211;50.154;8.682;2022-07-06T04:56:48;100803.00;;;22.00
65569;BMP180;52211;50.154;8.682;2022-07-06T04:59:20;100797.00;;;22.00
65569;BMP180;52211;50.154;8.682;2022-07-06T05:01:53;100798.00;;;22.00
65569;BMP180;52211;50.154;8.682;2022-07-06T05:04:21;100804.00;;;22.00
65569;BMP180;52211;50.154;8.682;2022-07-06T05:06:51;100810.00;;;22.00
65569;BMP180;52211;50.154;8.682;2022-07-06T05:09:20;100813.00;;;22.00
65569;BMP180;52211;50.154;8.682;2022-07-06T05:11:49;100808.00;;;22.00
65569;BMP180;52211;50.154;8.682;2022-07-06T05:14:23;100814.00;;;22.00
65569;BMP180;52211;50.154;8.682;2022-07-06T05:16:50;100807.00;;;22.00
65569;BMP180;52211;50.154;8.682;2022-07-06T05:19:17;100808.00;;;22.00
65569;BMP180;52211;50.154;8.682;2022-07-06T05:21:49;100809.00;;;22.00
65569;BMP180;52211;50.154;8.682;2022-07-06T05:24:17;100817.00;;;22.10
65569;BMP180;52211;50.154;8.682;2022-07-06T05:26:46;100819.00;;;22.10
65569;BMP180;52211;50.154;8.682;2022-07-06T05:29:15;100815.00;;;22.10
65569;BMP180;52211;50.154;8.682;2022-07-06T05:31:42;100814.00;;;22.20
65569;BMP180;52211;50.154;8.682;2022-07-06T05:34:15;100818.00;;;22.20
65569;BMP180;52211;50.154;8.682;2022-07-06T05:36:44;100810.00;;;22.30
65569;BMP180;52211;50.154;8.682;2022-07-06T05:39:11;100818.00;;;22.40
65569;BMP180;52211;50.154;8.682;2022-07-06T05:41:45;100820.00;;;22.40
65569;BMP180;52211;50.154;8.682;2022-07-06T05:44:15;100823.00;;;22.50
65569;BMP180;52211;50.154;8.682;2022-07-06T05:46:44;100818.00;;;22.50
65569;BMP180;52211;50.154;8.682;2022-07-06T05:49:13;100819.00;;;22.50
65569;BMP180;52211;50.154;8.682;2022-07-06T05:52:04;100823.00;;;22.50
65569;BMP180;52211;50.154;8.682;2022-07-06T05:54:38;100820.00;;;22.60
65569;BMP180;52211;50.154;8.682;2022-07-06T05:57:09;100825.00;;;22.60
65569;BMP180;52211;50.154;8.682;2022-07-06T05:59:36;100823.00;;;22.70
65569;BMP180;52211;50.154;8.682;2022-07-06T06:02:06;100835.00;;;22.70
65569;BMP180;52211;50.154;8.682;2022-07-06T06:04:33;100836.00;;;22.80
65569;BMP180;52211;50.154;8.682;2022-07-06T06:07:02;100844.00;;;22.80
65569;BMP180;52211;50.154;8.682;2022-07-06T06:09:29;100847.00;;;22.90
65569;BMP180;52211;50.154;8.682;2022-07-06T06:11:59;100851.00;;;22.90
65569;BMP180;52211;50.154;8.682;2022-07-06T06:14:28;100848.00;;;23.00
65569;BMP180;52211;50.154;8.682;2022-07-06T06:16:58;100845.00;;;23.00
65569;BMP180;52211;50.154;8.682;2022-07-06T06:19:27;100846.00;;;23.10
65569;BMP180;52211;50.154;8.682;2022-07-06T06:21:54;100847.00;;;23.10
65569;BMP180;52211;50.154;8.682;2022-07-06T06:24:23;100836.00;;;23.10
65569;BMP180;52211;50.154;8.682;2022-07-06T06:26:57;100846.00;;;23.20
65569;BMP180;52211;50.154;8.682;2022-07-06T06:29:28;100848.00;;;23.20
65569;BMP180;52211;50.154;8.682;2022-07-06T06:31:55;100858.00;;;23.30
65569;BMP180;52211;50.154;8.682;2022-07-06T06:34:22;100847.00;;;23.40
65569;BMP180;52211;50.154;8.682;2022-07-06T06:36:54;100839.00;;;23.40
65569;BMP180;52211;50.154;8.682;2022-07-06T06:39:23;100847.00;;;23.50
65569;BMP180;52211;50.154;8.682;2022-07-06T06:41:50;100845.00;;;23.50
65569;BMP180;52211;50.154;8.682;2022-07-06T06:44:21;100849.00;;;23.50
65569;BMP180;52211;50.154;8.682;2022-07-06T06:46:54;100848.00;;;23.60
65569;BMP180;52211;50.154;8.682;2022-07-06T06:49:21;100854.00;;;23.70
65569;BMP180;52211;50.154;8.682;2022-07-06T06:51:53;100858.00;;;23.70
65569;BMP180;52211;50.154;8.682;2022-07-06T06:54:40;100854.00;;;23.80
65569;BMP180;52211;50.154;8.682;2022-07-06T06:57:12;100853.00;;;23.90
65569;BMP180;52211;50.154;8.682;2022-07-06T06:59:39;100856.00;;;23.90
65569;BMP180;52211;50.154;8.682;2022-07-06T07:02:08;100860.00;;;24.00
65569;BMP180;52211;50.154;8.682;2022-07-06T07:04:37;100862.00;;;24.10
65569;BMP180;52211;50.154;8.682;2022-07-06T07:07:04;100868.00;;;24.10
65569;BMP180;52211;50.154;8.682;2022-07-06T07:09:34;100863.00;;;24.20
65569;BMP180;52211;50.154;8.682;2022-07-06T07:12:00;100875.00;;;24.20
65569;BMP180;52211;50.154;8.682;2022-07-06T07:14:32;100864.00;;;24.20
65569;BMP180;52211;50.154;8.682;2022-07-06T07:17:03;100863.00;;;24.20
65569;BMP180;52211;50.154;8.682;2022-07-06T07:19:33;100859.00;;;24.20
65569;BMP180;52211;50.154;8.682;2022-07-06T07:22:00;100868.00;;;24.20
65569;BMP180;52211;50.154;8.682;2022-07-06T07:24:32;100876.00;;;24.30
65569;BMP180;52211;50.154;8.682;2022-07-06T07:27:01;100874.00;;;24.30
65569;BMP180;52211;50.154;8.682;2022-07-06T07:29:31;100866.00;;;24.40
65569;BMP180;52211;50.154;8.682;2022-07-06T07:31:59;100864.00;;;24.40
65569;BMP180;52211;50.154;8.682;2022-07-06T07:34:28;100874.00;;;24.40
65569;BMP180;52211;50.154;8.682;2022-07-06T07:36:57;100869.00;;;24.50
65569;BMP180;52211;50.154;8.682;2022-07-06T07:39:28;100864.00;;;24.50
65569;BMP180;52211;50.154;8.682;2022-07-06T07:41:58;100862.00;;;24.50
65569;BMP180;52211;50.154;8.682;2022-07-06T07:44:25;100853.00;;;24.60
65569;BMP180;52211;50.154;8.682;2022-07-06T07:47:02;100853.00;;;24.70
65569;BMP180;52211;50.154;8.682;2022-07-06T07:49:32;100854.00;;;24.70
65569;BMP180;52211;50.154;8.682;2022-07-06T07:52:03;100852.00;;;24.80
65569;BMP180;52211;50.154;8.682;2022-07-06T07:54:35;100857.00;;;24.90
65569;BMP180;52211;50.154;8.682;2022-07-06T07:57:07;100857.00;;;25.00
65569;BMP180;52211;50.154;8.682;2022-07-06T07:59:36;100861.00;;;25.00
65569;BMP180;52211;50.154;8.682;2022-07-06T08:02:06;100862.00;;;25.10
65569;BMP180;52211;50.154;8.682;2022-07-06T08:04:36;100860.00;;;25.20
65569;BMP180;52211;50.154;8.682;2022-07-06T08:07:06;100863.00;;;25.30
65569;BMP180;52211;50.154;8.682;2022-07-06T08:09:37;100873.00;;;25.40
65569;BMP180;52211;50.154;8.682;2022-07-06T08:12:05;100870.00;;;25.40
65569;BMP180;52211;50.154;8.682;2022-07-06T08:14:36;100869.00;;;25.40
65569;BMP180;52211;50.154;8.682;2022-07-06T08:17:05;100872.00;;;25.40
65569;BMP180;52211;50.154;8.682;2022-07-06T08:19:34;100868.00;;;25.50
65569;BMP180;52211;50.154;8.682;2022-07-06T08:22:06;100868.00;;;25.50
65569;BMP180;52211;50.154;8.682;2022-07-06T08:25:07;100872.00;;;25.50
65569;BMP180;52211;50.154;8.682;2022-07-06T08:27:48;100870.00;;;25.60
65569;BMP180;52211;50.154;8.682;2022-07-06T08:30:18;100879.00;;;25.70
65569;BMP180;52211;50.154;8.682;2022-07-06T08:32:45;100874.00;;;25.80
65569;BMP180;52211;50.154;8.682;2022-07-06T08:35:32;100873.00;;;25.80
65569;BMP180;52211;50.154;8.682;2022-07-06T08:38:04;100877.00;;;25.90
65569;BMP180;52211;50.154;8.682;2022-07-06T08:40:38;100874.00;;;25.90
65569;BMP180;52211;50.154;8.682;2022-07-06T08:43:09;100872.00;;;25.90
65569;BMP180;52211;50.154;8.682;2022-07-06T08:45:36;100868.00;;;26.00
65569;BMP180;52211;50.154;8.682;2022-07-06T08:48:06;100875.00;;;26.00
65569;BMP180;52211;50.154;8.682;2022-07-06T08:50:36;100865.00;;;26.00
65569;BMP180;52211;50.154;8.682;2022-07-06T08:53:05;100872.00;;;26.10
65569;BMP180;52211;50.154;8.682;2022-07-06T08:55:34;100869.00;;;26.10
65569;BMP180;52211;50.154;8.682;2022-07-06T08:58:09;100878.00;;;26.10
65569;BMP180;52211;50.154;8.682;2022-07-06T09:00:43;100873.00;;;26.20
65569;BMP180;52211;50.154;8.682;2022-07-06T09:03:17;100875.00;;;26.20
65569;BMP180;52211;50.154;8.682;2022-07-06T09:05:46;100872.00;;;26.20
65569;BMP180;52211;50.154;8.682;2022-07-06T09:08:24;100874.00;;;26.30
65569;BMP180;52211;50.154;8.682;2022-07-06T09:10:54;100878.00;;;26.40
65569;BMP180;52211;50.154;8.682;2022-07-06T09:13:25;100877.00;;;26.50
65569;BMP180;52211;50.154;8.682;2022-07-06T09:15:55;100873.00;;;26.40
65569;BMP180;52211;50.154;8.682;2022-07-06T09:18:45;100877.00;;;26.40
65569;BMP180;52211;50.154;8.682;2022-07-06T09:21:30;100876.00;;;26.40
65569;BMP180;52211;50.154;8.682;2022-07-06T09:24:07;100883.00;;;26.40
65569;BMP180;52211;50.154;8.682;2022-07-06T09:26:35;100888.00;;;26.40
65569;BMP180;52211;50.154;8.682;2022-07-06T09:29:08;100873.00;;;26.40
65569;BMP180;52211;50.154;8.682;2022-07-06T09:31:35;100870.00;;;26.40
65569;BMP180;52211;50.154;8.682;2022-07-06T09:34:12;100879.00;;;26.50
65569;BMP180;52211;50.154;8.682;2022-07-06T09:36:49;100877.00;;;26.60
65569;BMP180;52211;50.154;8.682;2022-07-06T09:39:31;100880.00;;;26.60
65569;BMP180;52211;50.154;8.682;2022-07-06T09:42:03;100876.00;;;26.60
65569;BMP180;52211;50.154;8.682;2022-07-06T09:44:36;100867.00;;;26.60
65569;BMP180;52211;50.154;8.682;2022-07-06T09:47:10;100869.00;;;26.60
65569;BMP180;52211;50.154;8.682;2022-07-06T09:49:46;100866.00;;;26.60
65569;BMP180;52211;50.154;8.682;2022-07-06T09:52:19;100872.00;;;26.80
65569;BMP180;52211;50.154;8.682;2022-07-06T09:54:48;100878.00;;;26.90
65569;BMP180;52211;50.154;8.682;2022-07-06T09:57:20;100870.00;;;27.00
65569;BMP180;52211;50.154;8.682;2022-07-06T09:59:51;100872.00;;;27.00
65569;BMP180;52211;50.154;8.682;2022-07-06T10:02:20;100873.00;;;27.10
65569;BMP180;52211;50.154;8.682;2022-07-06T10:04:56;100877.00;;;27.10
65569;BMP180;52211;50.154;8.682;2022-07-06T10:07:25;100882.00;;;27.20
65569;BMP180;52211;50.154;8.682;2022-07-06T10:09:53;100872.00;;;27.20
65569;BMP180;52211;50.154;8.682;2022-07-06T10:12:20;100874.00;;;27.20
65569;BMP180;52211;50.154;8.682;2022-07-06T10:14:51;100876.00;;;27.30
65569;BMP180;52211;50.154;8.682;2022-07-06T10:17:20;100873.00;;;27.40
65569;BMP180;52211;50.154;8.682;2022-07-06T10:19:53;100870.00;;;27.40
65569;BMP180;52211;50.154;8.682;2022-07-06T10:22:22;100870.00;;;27.50
65569;BMP180;52211;50.154;8.682;2022-07-06T10:24:50;100855.00;;;27.50
65569;BMP180;52211;50.154;8.682;2022-07-06T10:27:22;100859.00;;;27.60
65569;BMP180;52211;50.154;8.682;2022-07-06T10:29:54;100864.00;;;27.70
65569;BMP180;52211;50.154;8.682;2022-07-06T10:32:26;100855.00;;;27.80
65569;BMP180;52211;50.154;8.682;2022-07-06T10:34:53;100862.00;;;27.90
65569;BMP180;52211;50.154;8.682;2022-07-06T10:37:27;100855.00;;;28.00
65569;BMP180;52211;50.154;8.682;2022-07-06T10:39:56;100859.00;;;28.00
65569;BMP180;52211;50.154;8.682;2022-07-06T10:42:56;100858.00;;;28.00
65569;BMP180;52211;50.154;8.682;2022-07-06T10:53:15;100850.00;;;28.30
65569;BMP180;52211;50.154;8.682;2022-07-06T10:55:50;100852.00;;;28.20
65569;BMP180;52211;50.154;8.682;2022-07-06T10:58:51;100856.00;;;28.20
65569;BMP180;52211;50.154;8.682;2022-07-06T11:01:20;100858.00;;;28.20
65569;BMP180;52211;50.154;8.682;2022-07-06T11:03:50;100849.00;;;28.30
65569;BMP180;52211;50.154;8.682;2022-07-06T11:06:38;100845.00;;;28.40
65569;BMP180;52211;50.154;8.682;2022-07-06T11:09:11;100844.00;;;28.50
65569;BMP180;52211;50.154;8.682;2022-07-06T11:11:42;100852.00;;;28.70
65569;BMP180;52211;50.154;8.682;2022-07-06T11:14:13;100853.00;;;29.00
65569;BMP180;52211;50.154;8.682;2022-07-06T11:19:25;100861.00;;;29.50
65569;BMP180;52211;50.154;8.682;2022-07-06T11:21:57;100858.00;;;29.90
65569;BMP180;52211;50.154;8.682;2022-07-06T11:24:29;100860.00;;;30.20
65569;BMP180;52211;50.154;8.682;2022-07-06T11:26:58;100857.00;;;30.50
65569;BMP180;52211;50.154;8.682;2022-07-06T11:29:31;100859.00;;;30.80
65569;BMP180;52211;50.154;8.682;2022-07-06T11:32:07;100848.00;;;31.00
65569;BMP180;52211;50.154;8.682;2022-07-06T11:34:43;100845.00;;;31.40
65569;BMP180;52211;50.154;8.682;2022-07-06T11:37:17;100846.00;;;31.60
65569;BMP180;52211;50.154;8.682;2022-07-06T11:39:49;100844.00;;;31.80
65569;BMP180;52211;50.154;8.682;2022-07-06T11:42:19;100839.00;;;32.10
65569;BMP180;52211;50.154;8.682;2022-07-06T11:44:51;100835.00;;;32.30
65569;BMP180;52211;50.154;8.682;2022-07-06T11:47:30;100847.00;;;32.30
65569;BMP180;52211;50.154;8.682;2022-07-06T11:50:00;100843.00;;;32.30
65569;BMP180;52211;50.154;8.682;2022-07-06T11:52:26;100835.00;;;32.30
65569;BMP180;52211;50.154;8.682;2022-07-06T11:55:02;100847.00;;;32.30
65569;BMP180;52211;50.154;8.682;2022-07-06T11:57:32;100837.00;;;32.40
65569;BMP180;52211;50.154;8.682;2022-07-06T12:00:02;100832.00;;;32.60
65569;BMP180;52211;50.154;8.682;2022-07-06T12:02:29;100844.00;;;32.80
65569;BMP180;52211;50.154;8.682;2022-07-06T12:04:56;100839.00;;;33.10
65569;BMP180;52211;50.154;8.682;2022-07-06T12:07:23;100835.00;;;33.40
65569;BMP180;52211;50.154;8.682;2022-07-06T12:09:52;100816.00;;;33.70
65569;BMP180;52211;50.154;8.682;2022-07-06T12:12:21;100822.00;;;34.00
65569;BMP180;52211;50.154;8.682;2022-07-06T12:14:52;100819.00;;;34.10
65569;BMP180;52211;50.154;8.682;2022-07-06T12:17:22;100820.00;;;34.30
65569;BMP180;52211;50.154;8.682;2022-07-06T12:19:55;100815.00;;;34.50
65569;BMP180;52211;50.154;8.682;2022-07-06T12:22:25;100815.00;;;34.80
65569;BMP180;52211;50.154;8.682;2022-07-06T12:24:57;100814.00;;;35.10
65569;BMP180;52211;50.154;8.682;2022-07-06T12:27:34;100808.00;;;35.20
65569;BMP180;52211;50.154;8.682;2022-07-06T12:30:11;100812.00;;;35.30
65569;BMP180;52211;50.154;8.682;2022-07-06T12:33:17;100814.00;;;35.10
65569;BMP180;52211;50.154;8.682;2022-07-06T12:35:45;100812.00;;;35.00
65569;BMP180;52211;50.154;8.682;2022-07-06T12:38:21;100808.00;;;34.90
65569;BMP180;52211;50.154;8.682;2022-07-06T12:40:48;100805.00;;;34.90
65569;BMP180;52211;50.154;8.682;2022-07-06T12:43:47;100805.00;;;34.80
65569;BMP180;52211;50.154;8.682;2022-07-06T12:46:29;100805.00;;;35.00
65569;BMP180;52211;50.154;8.682;2022-07-06T12:49:23;100799.00;;;35.10
65569;BMP180;52211;50.154;8.682;2022-07-06T12:54:37;100811.00;;;35.30
65569;BMP180;52211;50.154;8.682;2022-07-06T12:57:22;100810.00;;;35.30
65569;BMP180;52211;50.154;8.682;2022-07-06T12:59:57;100817.00;;;35.40
65569;BMP180;52211;50.154;8.682;2022-07-06T13:02:35;100809.00;;;35.40
65569;BMP180;52211;50.154;8.682;2022-07-06T13:05:29;100813.00;;;35.60
65569;BMP180;52211;50.154;8.682;2022-07-06T13:08:01;100817.00;;;35.70
65569;BMP180;52211;50.154;8.682;2022-07-06T13:10:33;100816.00;;;35.80
65569;BMP180;52211;50.154;8.682;2022-07-06T13:13:07;100802.00;;;35.80
65569;BMP180;52211;50.154;8.682;2022-07-06T13:15:37;100803.00;;;35.90
65569;BMP180;52211;50.154;8.682;2022-07-06T13:18:06;100813.00;;;35.90
65569;BMP180;52211;50.154;8.682;2022-07-06T13:20:43;100800.00;;;35.90
65569;BMP180;52211;50.154;8.682;2022-07-06T13:23:15;100801.00;;;36.00
65569;BMP180;52211;50.154;8.682;2022-07-06T13:25:42;100807.00;;;36.00
65569;BMP180;52211;50.154;8.682;2022-07-06T13:28:12;100810.00;;;35.90
65569;BMP180;52211;50.154;8.682;2022-07-06T13:30:46;100806.00;;;35.90
65569;BMP180;52211;50.154;8.682;2022-07-06T13:33:18;100805.00;;;35.90
65569;BMP180;52211;50.154;8.682;2022-07-06T13:35:50;100801.00;;;35.80
65569;BMP180;52211;50.154;8.682;2022-07-06T13:38:20;100805.00;;;35.80
65569;BMP180;52211;50.154;8.682;2022-07-06T13:40:52;100797.00;;;35.70
65569;BMP180;52211;50.154;8.682;2022-07-06T13:43:19;100796.00;;;35.60
65569;BMP180;52211;50.154;8.682;2022-07-06T13:45:47;100799.00;;;35.60
65569;BMP180;52211;50.154;8.682;2022-07-06T13:48:16;100790.00;;;35.60
65569;BMP180;52211;50.154;8.682;2022-07-06T13:50:45;100796.00;;;35.60
65569;BMP180;52211;50.154;8.682;2022-07-06T13:53:15;100788.00;;;35.60
65569;BMP180;52211;50.154;8.682;2022-07-06T13:55:42;100797.00;;;35.60
65569;BMP180;52211;50.154;8.682;2022-07-06T13:58:11;100806.00;;;35.70
65569;BMP180;52211;50.154;8.682;2022-07-06T14:00:40;100799.00;;;35.70
65569;BMP180;52211;50.154;8.682;2022-07-06T14:03:10;100791.00;;;35.70
65569;BMP180;52211;50.154;8.682;2022-07-06T14:05:44;100794.00;;;35.70
65569;BMP180;52211;50.154;8.682;2022-07-06T14:08:11;100791.00;;;35.70
65569;BMP180;52211;50.154;8.682;2022-07-06T14:10:43;100794.00;;;35.80
65569;BMP180;52211;50.154;8.682;2022-07-06T14:13:12;100790.00;;;36.00
65569;BMP180;52211;50.154;8.682;2022-07-06T14:15:48;100793.00;;;36.00
65569;BMP180;52211;50.154;8.682;2022-07-06T14:18:18;100787.00;;;36.10
65569;BMP180;52211;50.154;8.682;2022-07-06T14:20:47;100787.00;;;36.10
65569;BMP180;52211;50.154;8.682;2022-07-06T14:23:17;100788.00;;;36.10
65569;BMP180;52211;50.154;8.682;2022-07-06T14:25:50;100774.00;;;36.00
65569;BMP180;52211;50.154;8.682;2022-07-06T14:28:20;100778.00;;;35.80
65569;BMP180;52211;50.154;8.682;2022-07-06T14:30:50;100782.00;;;35.60
65569;BMP180;52211;50.154;8.682;2022-07-06T14:33:20;100769.00;;;35.50